Winnsboro, LA

2:54 AM CDT on October 02, 2014 (GMT -0500)
KLARAYVI2 | Change Station
CLOSE
Current Station
Personal Weather Station
Location: Rayville, LA
Elevation: 92 ft
Nearby Weather Stations

Elev 92 ft 32.49 °N, 91.80 °W | Updated 15 seconds ago

Overcast
Overcast
76.8 °F
Feels Like 77 °F
N
0.0
Wind Variable Wind from WSW
Gusts 3.1 mph

Today
High -- | Low -- °F
--% Chance of Precip.
Yesterday
High -- | Low -- °F
Precip. -- in
7:01 AM 6:50 PM
First Quarter, 56% visible
Pressure 29.90 in
Visibility 10.0 miles
Clouds Overcast 1100 ft
Heat Index 77 °F
Dew Point 76 °F
Humidity 96%
Rainfall 0.00 in
Snow Depth Not available.
UV 0 out of 12
Pollen 8.10 out of 12
Air Quality Not available.
Flu Activity Not available.
SPECI KMLU 020732Z AUTO 18005KT 10SM OVC011 25/23 A2990 RMK AO2

More Conditions Fewer Conditions

Pressure 29.90 in
Visibility 10.0 miles
Clouds Overcast 1100 ft
Heat Index 77 °F
Dew Point 76 °F
Humidity 96%
Rainfall 0.00 in
Snow Depth Not available.
UV 0 out of 12
Pollen 8.10 out of 12
Air Quality Not available.
Flu Activity Not available.
SPECI KMLU 020732Z AUTO 18005KT 10SM OVC011 25/23 A2990 RMK AO2

More Conditions Fewer Conditions

10-Day Weather Forecast

Almanac

Astronomy

Oct. 02, 2014 Rise Set
Actual Time 7:01 AM CDT 6:50 PM CDT
Civil Twilight 6:37 AM CDT 7:14 PM CDT
Nautical Twilight 6:08 AM CDT 7:43 PM CDT
Astronomical Twilight 5:40 AM CDT 8:11 PM CDT
Moon 2:39 PM CDT 12:37 AM CDT
Length of Visible Light 12h 37m
Length of Day
11h 48m
Tomorrow will be 1m 57s shorter.
First Quarter, 56% of the Moon is Illuminated
Today
First Quarter
Oct 8
Full
Oct 15
Last Quarter
Oct 23
New
Oct 30
First Quarter

Community

WunderPhotos

Upload Photos

1,758,198 photos uploaded!

WunderBlogs® & News

By Dr. Jeff Masters
Director of Meteorology, Weather Underground
By Kari Strenfel
Meteorologist, Weather Underground
By Christopher C. Burt
Weather Historian, Weather Underground
October 2, 2014
October 2, 2014
October 2, 2014

Nearby

Snow Depth

Station Depth Elevation
No new snow has been reported.

Earthquake Activity

City Distance Mag. Time & Date
No recent earthquake activity has been reported nearby.
Minimum magnitude displayed is 2.5.

Coastal Water Temperatures

Place Temperature
No Stations Reporting

Nearby Weather Stations